sensor_id;sensor_type;location;lat;lon;timestamp;temperature;humidity
1578;DHT22;57623;53.608;10.004;2023-03-23T00:01:30;11.30;99.90
1578;DHT22;57623;53.608;10.004;2023-03-23T00:04:03;11.30;99.90
1578;DHT22;57623;53.608;10.004;2023-03-23T00:06:31;11.30;99.90
1578;DHT22;57623;53.608;10.004;2023-03-23T00:09:00;11.30;99.90
1578;DHT22;57623;53.608;10.004;2023-03-23T00:11:31;11.20;99.90
1578;DHT22;57623;53.608;10.004;2023-03-23T00:13:59;11.20;99.90
1578;DHT22;57623;53.608;10.004;2023-03-23T00:16:30;11.10;99.90
1578;DHT22;57623;53.608;10.004;2023-03-23T00:18:59;11.10;99.90
1578;DHT22;57623;53.608;10.004;2023-03-23T00:21:29;11.10;99.90
1578;DHT22;57623;53.608;10.004;2023-03-23T00:24:01;11.10;99.90
1578;DHT22;57623;53.608;10.004;2023-03-23T00:26:28;11.00;99.90
1578;DHT22;57623;53.608;10.004;2023-03-23T00:29:00;11.00;99.90
1578;DHT22;57623;53.608;10.004;2023-03-23T00:31:27;11.00;99.90
1578;DHT22;57623;53.608;10.004;2023-03-23T00:33:57;11.00;99.90
1578;DHT22;57623;53.608;10.004;2023-03-23T00:36:27;11.00;99.90
1578;DHT22;57623;53.608;10.004;2023-03-23T00:38:55;10.90;99.90
1578;DHT22;57623;53.608;10.004;2023-03-23T00:41:25;11.00;99.90
1578;DHT22;57623;53.608;10.004;2023-03-23T00:43:54;10.90;99.90
1578;DHT22;57623;53.608;10.004;2023-03-23T00:46:21;11.00;99.90
1578;DHT22;57623;53.608;10.004;2023-03-23T00:48:48;10.90;99.90
1578;DHT22;57623;53.608;10.004;2023-03-23T00:51:16;10.90;99.90
1578;DHT22;57623;53.608;10.004;2023-03-23T00:53:45;10.90;99.90
1578;DHT22;57623;53.608;10.004;2023-03-23T00:56:13;10.90;99.90
1578;DHT22;57623;53.608;10.004;2023-03-23T00:58:40;10.90;99.90
1578;DHT22;57623;53.608;10.004;2023-03-23T01:01:08;10.90;99.90
1578;DHT22;57623;53.608;10.004;2023-03-23T01:03:36;10.90;99.90
1578;DHT22;57623;53.608;10.004;2023-03-23T01:06:07;10.90;99.90
1578;DHT22;57623;53.608;10.004;2023-03-23T01:08:39;10.90;99.90
1578;DHT22;57623;53.608;10.004;2023-03-23T01:11:13;10.90;99.90
1578;DHT22;57623;53.608;10.004;2023-03-23T01:13:41;10.90;99.90
1578;DHT22;57623;53.608;10.004;2023-03-23T01:16:09;10.90;99.90
1578;DHT22;57623;53.608;10.004;2023-03-23T01:18:36;10.90;99.90
1578;DHT22;57623;53.608;10.004;2023-03-23T01:21:04;10.90;99.90
1578;DHT22;57623;53.608;10.004;2023-03-23T01:23:32;10.90;99.90
1578;DHT22;57623;53.608;10.004;2023-03-23T01:26:03;10.90;99.90
1578;DHT22;57623;53.608;10.004;2023-03-23T01:28:31;10.90;99.90
1578;DHT22;57623;53.608;10.004;2023-03-23T01:31:02;10.90;99.90
1578;DHT22;57623;53.608;10.004;2023-03-23T01:33:30;10.90;99.90
1578;DHT22;57623;53.608;10.004;2023-03-23T01:35:57;10.90;99.90
1578;DHT22;57623;53.608;10.004;2023-03-23T01:38:24;10.90;99.90
1578;DHT22;57623;53.608;10.004;2023-03-23T01:40:51;10.90;99.90
1578;DHT22;57623;53.608;10.004;2023-03-23T01:43:18;10.90;99.90
1578;DHT22;57623;53.608;10.004;2023-03-23T01:45:46;10.90;99.90
1578;DHT22;57623;53.608;10.004;2023-03-23T01:48:17;10.90;99.90
1578;DHT22;57623;53.608;10.004;2023-03-23T01:50:50;10.90;99.90
1578;DHT22;57623;53.608;10.004;2023-03-23T01:53:18;10.80;99.90
1578;DHT22;57623;53.608;10.004;2023-03-23T01:55:47;10.90;99.90
1578;DHT22;57623;53.608;10.004;2023-03-23T01:58:18;10.90;99.90
1578;DHT22;57623;53.608;10.004;2023-03-23T02:00:47;10.90;99.90
1578;DHT22;57623;53.608;10.004;2023-03-23T02:03:14;10.80;99.90
1578;DHT22;57623;53.608;10.004;2023-03-23T02:05:43;10.90;99.90
1578;DHT22;57623;53.608;10.004;2023-03-23T02:08:11;10.80;99.90
1578;DHT22;57623;53.608;10.004;2023-03-23T02:10:40;10.80;99.90
1578;DHT22;57623;53.608;10.004;2023-03-23T02:13:09;10.80;99.90
1578;DHT22;57623;53.608;10.004;2023-03-23T02:15:48;10.80;99.90
1578;DHT22;57623;53.608;10.004;2023-03-23T02:18:26;10.80;99.90
1578;DHT22;57623;53.608;10.004;2023-03-23T02:24:10;10.90;99.90
1578;DHT22;57623;53.608;10.004;2023-03-23T02:26:51;10.80;99.90
1578;DHT22;57623;53.608;10.004;2023-03-23T02:29:46;10.90;99.90
1578;DHT22;57623;53.608;10.004;2023-03-23T02:32:39;10.80;99.90
1578;DHT22;57623;53.608;10.004;2023-03-23T02:35:12;10.80;99.90
1578;DHT22;57623;53.608;10.004;2023-03-23T02:37:47;10.90;99.90
1578;DHT22;57623;53.608;10.004;2023-03-23T02:40:18;10.80;99.90
1578;DHT22;57623;53.608;10.004;2023-03-23T02:42:50;10.90;99.90
1578;DHT22;57623;53.608;10.004;2023-03-23T02:45:20;10.90;99.90
1578;DHT22;57623;53.608;10.004;2023-03-23T02:47:50;10.90;99.90
1578;DHT22;57623;53.608;10.004;2023-03-23T02:50:22;10.90;99.90
1578;DHT22;57623;53.608;10.004;2023-03-23T02:52:50;10.90;99.90
1578;DHT22;57623;53.608;10.004;2023-03-23T02:55:21;10.90;99.90
1578;DHT22;57623;53.608;10.004;2023-03-23T02:57:51;10.90;99.90
1578;DHT22;57623;53.608;10.004;2023-03-23T03:00:19;10.90;99.90
1578;DHT22;57623;53.608;10.004;2023-03-23T03:02:48;10.90;99.90
1578;DHT22;57623;53.608;10.004;2023-03-23T03:05:26;10.90;99.90
1578;DHT22;57623;53.608;10.004;2023-03-23T03:08:07;10.90;99.90
1578;DHT22;57623;53.608;10.004;2023-03-23T03:10:43;10.90;99.90
1578;DHT22;57623;53.608;10.004;2023-03-23T03:13:17;10.90;99.90
1578;DHT22;57623;53.608;10.004;2023-03-23T03:15:49;10.90;99.90
1578;DHT22;57623;53.608;10.004;2023-03-23T03:18:22;10.90;99.90
1578;DHT22;57623;53.608;10.004;2023-03-23T03:20:54;10.90;99.90
1578;DHT22;57623;53.608;10.004;2023-03-23T03:23:24;10.90;99.90
1578;DHT22;57623;53.608;10.004;2023-03-23T03:25:53;10.90;99.90
1578;DHT22;57623;53.608;10.004;2023-03-23T03:28:24;10.90;99.90
1578;DHT22;57623;53.608;10.004;2023-03-23T03:30:54;10.90;99.90
1578;DHT22;57623;53.608;10.004;2023-03-23T03:33:23;11.00;99.90
1578;DHT22;57623;53.608;10.004;2023-03-23T03:35:54;10.90;99.90
1578;DHT22;57623;53.608;10.004;2023-03-23T03:38:21;11.00;99.90
1578;DHT22;57623;53.608;10.004;2023-03-23T03:41:20;11.00;99.90
1578;DHT22;57623;53.608;10.004;2023-03-23T03:43:47;11.00;99.90
1578;DHT22;57623;53.608;10.004;2023-03-23T03:46:14;10.90;99.90
1578;DHT22;57623;53.608;10.004;2023-03-23T03:48:41;11.00;99.90
1578;DHT22;57623;53.608;10.004;2023-03-23T03:51:09;10.90;99.90
1578;DHT22;57623;53.608;10.004;2023-03-23T03:53:37;11.00;99.90
1578;DHT22;57623;53.608;10.004;2023-03-23T03:56:05;11.00;99.90
1578;DHT22;57623;53.608;10.004;2023-03-23T03:58:32;11.00;99.90
1578;DHT22;57623;53.608;10.004;2023-03-23T04:01:02;11.00;99.90
1578;DHT22;57623;53.608;10.004;2023-03-23T04:03:29;11.00;99.90
1578;DHT22;57623;53.608;10.004;2023-03-23T04:05:56;11.00;99.90
1578;DHT22;57623;53.608;10.004;2023-03-23T04:08:26;11.10;99.90
1578;DHT22;57623;53.608;10.004;2023-03-23T04:10:53;11.10;99.90
1578;DHT22;57623;53.608;10.004;2023-03-23T04:13:21;11.10;99.90
1578;DHT22;57623;53.608;10.004;2023-03-23T04:15:48;11.10;99.90
1578;DHT22;57623;53.608;10.004;2023-03-23T04:18:16;11.10;99.90
1578;DHT22;57623;53.608;10.004;2023-03-23T04:20:44;11.10;99.90
1578;DHT22;57623;53.608;10.004;2023-03-23T04:23:13;11.10;99.90
1578;DHT22;57623;53.608;10.004;2023-03-23T04:25:41;11.10;99.90
1578;DHT22;57623;53.608;10.004;2023-03-23T04:28:08;11.10;99.90
1578;DHT22;57623;53.608;10.004;2023-03-23T04:30:36;11.10;99.90
1578;DHT22;57623;53.608;10.004;2023-03-23T04:33:03;11.10;99.90
1578;DHT22;57623;53.608;10.004;2023-03-23T04:35:30;11.20;99.90
1578;DHT22;57623;53.608;10.004;2023-03-23T04:37:57;11.10;99.90
1578;DHT22;57623;53.608;10.004;2023-03-23T04:40:24;11.10;99.90
1578;DHT22;57623;53.608;10.004;2023-03-23T04:42:52;11.10;99.90
1578;DHT22;57623;53.608;10.004;2023-03-23T04:45:23;11.10;99.90
1578;DHT22;57623;53.608;10.004;2023-03-23T04:47:51;11.10;99.90
1578;DHT22;57623;53.608;10.004;2023-03-23T04:50:24;11.10;99.90
1578;DHT22;57623;53.608;10.004;2023-03-23T04:52:53;11.10;99.90
1578;DHT22;57623;53.608;10.004;2023-03-23T04:55:23;11.10;99.90
1578;DHT22;57623;53.608;10.004;2023-03-23T04:57:52;11.10;99.90
1578;DHT22;57623;53.608;10.004;2023-03-23T05:00:20;11.10;99.90
1578;DHT22;57623;53.608;10.004;2023-03-23T05:02:47;11.10;99.90
1578;DHT22;57623;53.608;10.004;2023-03-23T05:05:18;11.10;99.90
1578;DHT22;57623;53.608;10.004;2023-03-23T05:07:45;11.10;99.90
1578;DHT22;57623;53.608;10.004;2023-03-23T05:10:13;11.10;99.90
1578;DHT22;57623;53.608;10.004;2023-03-23T05:12:41;11.10;99.90
1578;DHT22;57623;53.608;10.004;2023-03-23T05:15:10;11.10;99.90
1578;DHT22;57623;53.608;10.004;2023-03-23T05:17:37;11.10;99.90
1578;DHT22;57623;53.608;10.004;2023-03-23T05:20:07;11.20;99.90
1578;DHT22;57623;53.608;10.004;2023-03-23T05:22:36;11.20;99.90
1578;DHT22;57623;53.608;10.004;2023-03-23T05:25:04;11.20;99.90
1578;DHT22;57623;53.608;10.004;2023-03-23T05:27:34;11.20;99.90
1578;DHT22;57623;53.608;10.004;2023-03-23T05:30:01;11.20;99.90
1578;DHT22;57623;53.608;10.004;2023-03-23T05:32:30;11.20;99.90
1578;DHT22;57623;53.608;10.004;2023-03-23T05:34:57;11.20;99.90
1578;DHT22;57623;53.608;10.004;2023-03-23T05:37:24;11.20;99.90
1578;DHT22;57623;53.608;10.004;2023-03-23T05:39:52;11.20;99.90
1578;DHT22;57623;53.608;10.004;2023-03-23T05:42:21;11.20;99.90
1578;DHT22;57623;53.608;10.004;2023-03-23T05:44:48;11.20;99.90
1578;DHT22;57623;53.608;10.004;2023-03-23T05:47:15;11.20;99.90
1578;DHT22;57623;53.608;10.004;2023-03-23T05:49:43;11.20;99.90
1578;DHT22;57623;53.608;10.004;2023-03-23T05:52:11;11.20;99.90
1578;DHT22;57623;53.608;10.004;2023-03-23T05:54:39;11.20;99.90
1578;DHT22;57623;53.608;10.004;2023-03-23T05:57:07;11.20;99.90
1578;DHT22;57623;53.608;10.004;2023-03-23T05:59:34;11.20;99.90
1578;DHT22;57623;53.608;10.004;2023-03-23T06:02:01;11.20;99.90
1578;DHT22;57623;53.608;10.004;2023-03-23T06:04:28;11.20;99.90
1578;DHT22;57623;53.608;10.004;2023-03-23T06:06:56;11.20;99.90
1578;DHT22;57623;53.608;10.004;2023-03-23T06:09:23;11.10;99.90
1578;DHT22;57623;53.608;10.004;2023-03-23T06:11:50;11.10;99.90
1578;DHT22;57623;53.608;10.004;2023-03-23T06:14:17;11.20;99.90
1578;DHT22;57623;53.608;10.004;2023-03-23T06:16:44;11.10;99.90
1578;DHT22;57623;53.608;10.004;2023-03-23T06:19:11;11.10;99.90
1578;DHT22;57623;53.608;10.004;2023-03-23T06:21:38;11.20;99.90
1578;DHT22;57623;53.608;10.004;2023-03-23T06:24:07;11.10;99.90
1578;DHT22;57623;53.608;10.004;2023-03-23T06:26:36;11.10;99.90
1578;DHT22;57623;53.608;10.004;2023-03-23T06:29:04;11.10;99.90
1578;DHT22;57623;53.608;10.004;2023-03-23T06:31:37;11.10;99.90
1578;DHT22;57623;53.608;10.004;2023-03-23T06:34:05;11.20;99.90
1578;DHT22;57623;53.608;10.004;2023-03-23T06:36:32;11.20;99.90
1578;DHT22;57623;53.608;10.004;2023-03-23T06:38:59;11.20;99.90
1578;DHT22;57623;53.608;10.004;2023-03-23T06:41:28;11.20;99.90
1578;DHT22;57623;53.608;10.004;2023-03-23T06:43:54;11.40;99.90
1578;DHT22;57623;53.608;10.004;2023-03-23T06:46:21;11.60;99.90
1578;DHT22;57623;53.608;10.004;2023-03-23T06:48:49;11.60;99.90
1578;DHT22;57623;53.608;10.004;2023-03-23T06:51:17;11.50;99.90
1578;DHT22;57623;53.608;10.004;2023-03-23T06:53:44;11.50;99.90
1578;DHT22;57623;53.608;10.004;2023-03-23T06:56:11;11.50;99.90
1578;DHT22;57623;53.608;10.004;2023-03-23T06:58:40;11.50;99.90
1578;DHT22;57623;53.608;10.004;2023-03-23T07:01:07;11.50;99.90
1578;DHT22;57623;53.608;10.004;2023-03-23T07:03:35;11.50;99.90
1578;DHT22;57623;53.608;10.004;2023-03-23T07:06:02;11.50;99.90
1578;DHT22;57623;53.608;10.004;2023-03-23T07:08:30;11.60;99.90
1578;DHT22;57623;53.608;10.004;2023-03-23T07:10:57;11.60;99.90
1578;DHT22;57623;53.608;10.004;2023-03-23T07:13:24;11.60;99.90
1578;DHT22;57623;53.608;10.004;2023-03-23T07:15:52;11.60;99.90
1578;DHT22;57623;53.608;10.004;2023-03-23T07:18:20;11.70;99.90
1578;DHT22;57623;53.608;10.004;2023-03-23T07:20:47;11.80;99.90
1578;DHT22;57623;53.608;10.004;2023-03-23T07:23:15;11.80;99.90
1578;DHT22;57623;53.608;10.004;2023-03-23T07:25:42;11.80;99.90
1578;DHT22;57623;53.608;10.004;2023-03-23T07:28:10;11.90;99.90
1578;DHT22;57623;53.608;10.004;2023-03-23T07:30:38;11.90;99.90
1578;DHT22;57623;53.608;10.004;2023-03-23T07:33:07;11.90;99.90
1578;DHT22;57623;53.608;10.004;2023-03-23T07:35:35;11.90;99.90
1578;DHT22;57623;53.608;10.004;2023-03-23T07:38:02;11.90;99.90
1578;DHT22;57623;53.608;10.004;2023-03-23T07:40:30;12.00;99.90
1578;DHT22;57623;53.608;10.004;2023-03-23T07:42:59;12.10;99.90
1578;DHT22;57623;53.608;10.004;2023-03-23T07:45:26;12.20;99.90
1578;DHT22;57623;53.608;10.004;2023-03-23T07:47:53;12.30;99.90
1578;DHT22;57623;53.608;10.004;2023-03-23T07:50:23;12.40;99.90
1578;DHT22;57623;53.608;10.004;2023-03-23T07:52:51;12.40;99.90
1578;DHT22;57623;53.608;10.004;2023-03-23T07:55:18;12.40;99.90
1578;DHT22;57623;53.608;10.004;2023-03-23T07:57:47;12.30;99.90
1578;DHT22;57623;53.608;10.004;2023-03-23T08:00:15;12.30;99.90
1578;DHT22;57623;53.608;10.004;2023-03-23T08:02:44;12.20;99.90
1578;DHT22;57623;53.608;10.004;2023-03-23T08:05:11;12.20;99.90
1578;DHT22;57623;53.608;10.004;2023-03-23T08:07:41;12.10;99.90
1578;DHT22;57623;53.608;10.004;2023-03-23T08:10:09;12.10;99.90
1578;DHT22;57623;53.608;10.004;2023-03-23T08:12:37;12.00;99.90
1578;DHT22;57623;53.608;10.004;2023-03-23T08:15:05;12.00;99.90
1578;DHT22;57623;53.608;10.004;2023-03-23T08:17:33;12.00;99.90
1578;DHT22;57623;53.608;10.004;2023-03-23T08:20:01;12.00;99.90
1578;DHT22;57623;53.608;10.004;2023-03-23T08:22:38;11.90;99.90
1578;DHT22;57623;53.608;10.004;2023-03-23T08:25:09;11.90;99.90
1578;DHT22;57623;53.608;10.004;2023-03-23T08:27:37;11.80;99.90
1578;DHT22;57623;53.608;10.004;2023-03-23T08:30:10;11.70;99.90
1578;DHT22;57623;53.608;10.004;2023-03-23T08:32:37;11.60;99.90
1578;DHT22;57623;53.608;10.004;2023-03-23T08:35:06;11.40;99.90
1578;DHT22;57623;53.608;10.004;2023-03-23T08:37:33;11.40;99.90
1578;DHT22;57623;53.608;10.004;2023-03-23T08:40:00;11.30;99.90
1578;DHT22;57623;53.608;10.004;2023-03-23T08:42:34;11.30;99.90
1578;DHT22;57623;53.608;10.004;2023-03-23T08:45:01;11.30;99.90
1578;DHT22;57623;53.608;10.004;2023-03-23T08:47:28;11.30;99.90
1578;DHT22;57623;53.608;10.004;2023-03-23T08:49:55;11.30;99.90
1578;DHT22;57623;53.608;10.004;2023-03-23T08:52:22;11.40;99.90
1578;DHT22;57623;53.608;10.004;2023-03-23T08:54:50;11.40;99.90
1578;DHT22;57623;53.608;10.004;2023-03-23T08:57:17;11.50;99.90
1578;DHT22;57623;53.608;10.004;2023-03-23T08:59:46;11.60;99.90
1578;DHT22;57623;53.608;10.004;2023-03-23T09:02:13;11.70;99.90
1578;DHT22;57623;53.608;10.004;2023-03-23T09:04:40;11.80;99.90
1578;DHT22;57623;53.608;10.004;2023-03-23T09:07:08;11.80;99.90
1578;DHT22;57623;53.608;10.004;2023-03-23T09:09:37;11.80;99.90
1578;DHT22;57623;53.608;10.004;2023-03-23T09:12:05;11.90;99.90
1578;DHT22;57623;53.608;10.004;2023-03-23T09:14:32;12.00;99.90
1578;DHT22;57623;53.608;10.004;2023-03-23T09:17:01;12.10;99.90
1578;DHT22;57623;53.608;10.004;2023-03-23T09:19:28;12.10;99.90
1578;DHT22;57623;53.608;10.004;2023-03-23T09:21:55;12.10;99.90
1578;DHT22;57623;53.608;10.004;2023-03-23T09:24:22;12.10;99.90
1578;DHT22;57623;53.608;10.004;2023-03-23T09:26:49;12.10;99.90
1578;DHT22;57623;53.608;10.004;2023-03-23T09:29:16;12.10;99.90
1578;DHT22;57623;53.608;10.004;2023-03-23T09:31:44;12.00;99.90
1578;DHT22;57623;53.608;10.004;2023-03-23T09:34:13;12.00;99.90
1578;DHT22;57623;53.608;10.004;2023-03-23T09:36:42;12.00;99.90
1578;DHT22;57623;53.608;10.004;2023-03-23T09:39:10;12.00;99.90
1578;DHT22;57623;53.608;10.004;2023-03-23T09:41:57;12.00;99.90
1578;DHT22;57623;53.608;10.004;2023-03-23T09:44:33;12.10;99.90
1578;DHT22;57623;53.608;10.004;2023-03-23T09:47:06;12.10;99.90
1578;DHT22;57623;53.608;10.004;2023-03-23T09:49:41;12.20;99.90
1578;DHT22;57623;53.608;10.004;2023-03-23T09:52:13;12.20;99.90
1578;DHT22;57623;53.608;10.004;2023-03-23T09:54:42;12.30;99.90
1578;DHT22;57623;53.608;10.004;2023-03-23T09:57:14;12.40;99.90
1578;DHT22;57623;53.608;10.004;2023-03-23T09:59:49;12.50;99.90
1578;DHT22;57623;53.608;10.004;2023-03-23T10:02:21;12.60;99.90
1578;DHT22;57623;53.608;10.004;2023-03-23T10:04:54;12.70;99.90
1578;DHT22;57623;53.608;10.004;2023-03-23T10:07:23;12.70;99.90
1578;DHT22;57623;53.608;10.004;2023-03-23T10:09:53;12.70;99.90
1578;DHT22;57623;53.608;10.004;2023-03-23T10:12:27;12.70;99.90
1578;DHT22;57623;53.608;10.004;2023-03-23T10:15:14;12.70;99.90
1578;DHT22;57623;53.608;10.004;2023-03-23T10:17:46;12.70;99.90
1578;DHT22;57623;53.608;10.004;2023-03-23T10:20:40;12.80;99.90
1578;DHT22;57623;53.608;10.004;2023-03-23T10:23:34;12.80;99.90
1578;DHT22;57623;53.608;10.004;2023-03-23T10:26:08;12.90;99.90
1578;DHT22;57623;53.608;10.004;2023-03-23T10:28:41;13.00;99.90
1578;DHT22;57623;53.608;10.004;2023-03-23T10:31:11;13.10;99.90
1578;DHT22;57623;53.608;10.004;2023-03-23T10:33:40;13.10;99.90
1578;DHT22;57623;53.608;10.004;2023-03-23T10:36:13;13.10;99.90
1578;DHT22;57623;53.608;10.004;2023-03-23T10:38:44;13.10;99.90
1578;DHT22;57623;53.608;10.004;2023-03-23T10:41:14;13.10;99.90
1578;DHT22;57623;53.608;10.004;2023-03-23T10:43:41;13.10;99.90
1578;DHT22;57623;53.608;10.004;2023-03-23T10:46:19;13.10;99.90
1578;DHT22;57623;53.608;10.004;2023-03-23T10:48:49;13.10;99.90
1578;DHT22;57623;53.608;10.004;2023-03-23T10:51:22;13.00;99.90
1578;DHT22;57623;53.608;10.004;2023-03-23T10:53:51;12.90;99.90
1578;DHT22;57623;53.608;10.004;2023-03-23T10:56:24;12.80;99.90
1578;DHT22;57623;53.608;10.004;2023-03-23T10:58:53;12.80;99.90
1578;DHT22;57623;53.608;10.004;2023-03-23T11:01:29;12.80;99.90
1578;DHT22;57623;53.608;10.004;2023-03-23T11:03:57;12.80;99.90
1578;DHT22;57623;53.608;10.004;2023-03-23T11:06:30;12.80;99.90
1578;DHT22;57623;53.608;10.004;2023-03-23T11:09:01;12.90;99.90
1578;DHT22;57623;53.608;10.004;2023-03-23T11:11:31;13.00;99.90
1578;DHT22;57623;53.608;10.004;2023-03-23T11:13:59;13.10;99.90
1578;DHT22;57623;53.608;10.004;2023-03-23T11:16:28;13.20;99.90
1578;DHT22;57623;53.608;10.004;2023-03-23T11:18:57;13.30;99.90
1578;DHT22;57623;53.608;10.004;2023-03-23T11:21:26;13.40;99.90
1578;DHT22;57623;53.608;10.004;2023-03-23T11:23:55;13.50;99.90
1578;DHT22;57623;53.608;10.004;2023-03-23T11:26:26;13.60;99.90
1578;DHT22;57623;53.608;10.004;2023-03-23T11:28:56;13.60;99.90
1578;DHT22;57623;53.608;10.004;2023-03-23T11:31:28;13.60;99.90
1578;DHT22;57623;53.608;10.004;2023-03-23T11:33:59;13.60;99.90
1578;DHT22;57623;53.608;10.004;2023-03-23T11:36:35;13.60;99.90
1578;DHT22;57623;53.608;10.004;2023-03-23T11:39:03;13.60;99.90
1578;DHT22;57623;53.608;10.004;2023-03-23T11:41:34;13.60;99.90
1578;DHT22;57623;53.608;10.004;2023-03-23T11:44:10;13.70;99.90
1578;DHT22;57623;53.608;10.004;2023-03-23T11:46:45;13.70;99.90
1578;DHT22;57623;53.608;10.004;2023-03-23T11:49:20;13.60;99.90
1578;DHT22;57623;53.608;10.004;2023-03-23T11:51:56;13.60;99.90
1578;DHT22;57623;53.608;10.004;2023-03-23T11:54:30;13.60;99.90
1578;DHT22;57623;53.608;10.004;2023-03-23T11:56:57;13.60;99.90
1578;DHT22;57623;53.608;10.004;2023-03-23T11:59:28;13.50;99.90
1578;DHT22;57623;53.608;10.004;2023-03-23T12:02:08;13.50;99.90
1578;DHT22;57623;53.608;10.004;2023-03-23T12:04:57;13.50;99.90
1578;DHT22;57623;53.608;10.004;2023-03-23T12:07:45;13.40;99.90
1578;DHT22;57623;53.608;10.004;2023-03-23T12:10:25;13.30;99.90
1578;DHT22;57623;53.608;10.004;2023-03-23T12:13:02;13.30;99.90
1578;DHT22;57623;53.608;10.004;2023-03-23T12:15:36;13.30;99.90
1578;DHT22;57623;53.608;10.004;2023-03-23T12:18:12;13.30;99.90
1578;DHT22;57623;53.608;10.004;2023-03-23T12:20:53;13.30;99.90
1578;DHT22;57623;53.608;10.004;2023-03-23T12:23:28;13.30;99.90
1578;DHT22;57623;53.608;10.004;2023-03-23T12:26:13;13.30;99.90
1578;DHT22;57623;53.608;10.004;2023-03-23T12:31:44;13.30;99.90
1578;DHT22;57623;53.608;10.004;2023-03-23T12:34:20;13.30;99.90
1578;DHT22;57623;53.608;10.004;2023-03-23T12:37:00;13.30;99.90
1578;DHT22;57623;53.608;10.004;2023-03-23T12:40:03;13.30;99.90
1578;DHT22;57623;53.608;10.004;2023-03-23T12:42:42;13.30;99.90
1578;DHT22;57623;53.608;10.004;2023-03-23T12:45:19;13.20;99.90
1578;DHT22;57623;53.608;10.004;2023-03-23T12:47:54;13.20;99.90
1578;DHT22;57623;53.608;10.004;2023-03-23T12:50:27;13.10;99.90
1578;DHT22;57623;53.608;10.004;2023-03-23T12:52:58;13.10;99.90
1578;DHT22;57623;53.608;10.004;2023-03-23T12:55:31;13.10;99.90
1578;DHT22;57623;53.608;10.004;2023-03-23T12:58:02;13.20;99.90
1578;DHT22;57623;53.608;10.004;2023-03-23T13:00:46;13.20;99.90
1578;DHT22;57623;53.608;10.004;2023-03-23T13:03:19;13.20;99.90
1578;DHT22;57623;53.608;10.004;2023-03-23T13:05:52;13.30;99.90
1578;DHT22;57623;53.608;10.004;2023-03-23T13:08:24;14.00;99.90
1578;DHT22;57623;53.608;10.004;2023-03-23T13:10:57;15.90;99.90
1578;DHT22;57623;53.608;10.004;2023-03-23T13:16:13;20.20;99.90
1578;DHT22;57623;53.608;10.004;2023-03-23T13:18:46;22.60;99.90
1578;DHT22;57623;53.608;10.004;2023-03-23T13:21:18;24.60;99.90
1578;DHT22;57623;53.608;10.004;2023-03-23T13:23:48;25.60;99.90
1578;DHT22;57623;53.608;10.004;2023-03-23T13:26:20;26.00;99.90
1578;DHT22;57623;53.608;10.004;2023-03-23T13:28:55;24.90;99.90
1578;DHT22;57623;53.608;10.004;2023-03-23T13:31:26;23.30;99.90
1578;DHT22;57623;53.608;10.004;2023-03-23T13:34:02;23.50;99.90
1578;DHT22;57623;53.608;10.004;2023-03-23T13:36:32;24.30;99.90
1578;DHT22;57623;53.608;10.004;2023-03-23T13:39:02;23.10;99.90
1578;DHT22;57623;53.608;10.004;2023-03-23T13:41:31;21.30;99.90
1578;DHT22;57623;53.608;10.004;2023-03-23T13:44:14;19.80;99.90
1578;DHT22;57623;53.608;10.004;2023-03-23T13:46:42;18.40;99.90
1578;DHT22;57623;53.608;10.004;2023-03-23T13:49:21;17.80;99.90
1578;DHT22;57623;53.608;10.004;2023-03-23T13:52:16;17.30;99.90
1578;DHT22;57623;53.608;10.004;2023-03-23T13:54:44;16.60;99.90
1578;DHT22;57623;53.608;10.004;2023-03-23T13:57:26;16.10;99.90
1578;DHT22;57623;53.608;10.004;2023-03-23T13:59:59;15.80;99.90
1578;DHT22;57623;53.608;10.004;2023-03-23T14:02:36;15.50;99.90
1578;DHT22;57623;53.608;10.004;2023-03-23T14:05:28;15.10;99.90
1578;DHT22;57623;53.608;10.004;2023-03-23T14:07:58;14.40;99.90
1578;DHT22;57623;53.608;10.004;2023-03-23T14:10:33;14.00;99.90
1578;DHT22;57623;53.608;10.004;2023-03-23T14:13:03;13.50;99.90
1578;DHT22;57623;53.608;10.004;2023-03-23T14:15:40;13.20;99.90
1578;DHT22;57623;53.608;10.004;2023-03-23T14:18:14;12.90;99.90
1578;DHT22;57623;53.608;10.004;2023-03-23T14:20:42;12.70;99.90
1578;DHT22;57623;53.608;10.004;2023-03-23T14:23:15;12.50;99.90
1578;DHT22;57623;53.608;10.004;2023-03-23T14:25:43;12.40;99.90
1578;DHT22;57623;53.608;10.004;2023-03-23T14:28:19;12.20;99.90
1578;DHT22;57623;53.608;10.004;2023-03-23T14:30:48;12.20;99.90
1578;DHT22;57623;53.608;10.004;2023-03-23T14:33:19;12.30;99.90
1578;DHT22;57623;53.608;10.004;2023-03-23T14:35:47;12.50;99.90
1578;DHT22;57623;53.608;10.004;2023-03-23T14:38:17;12.70;99.90
1578;DHT22;57623;53.608;10.004;2023-03-23T14:40:45;12.80;99.90
1578;DHT22;57623;53.608;10.004;2023-03-23T14:43:15;12.90;99.90
1578;DHT22;57623;53.608;10.004;2023-03-23T14:45:45;12.90;99.90
1578;DHT22;57623;53.608;10.004;2023-03-23T14:48:15;12.90;99.90
1578;DHT22;57623;53.608;10.004;2023-03-23T14:50:49;13.00;99.90
1578;DHT22;57623;53.608;10.004;2023-03-23T14:53:18;13.10;99.90
1578;DHT22;57623;53.608;10.004;2023-03-23T14:55:47;13.30;99.90
1578;DHT22;57623;53.608;10.004;2023-03-23T14:58:18;13.50;99.90
1578;DHT22;57623;53.608;10.004;2023-03-23T15:00:52;13.80;99.90
1578;DHT22;57623;53.608;10.004;2023-03-23T15:03:22;14.00;99.90
1578;DHT22;57623;53.608;10.004;2023-03-23T15:05:53;14.20;99.90
1578;DHT22;57623;53.608;10.004;2023-03-23T15:08:24;14.50;99.90
1578;DHT22;57623;53.608;10.004;2023-03-23T15:11:00;14.60;99.90
1578;DHT22;57623;53.608;10.004;2023-03-23T15:13:29;14.50;99.90
1578;DHT22;57623;53.608;10.004;2023-03-23T15:16:04;14.30;99.90
1578;DHT22;57623;53.608;10.004;2023-03-23T15:18:34;14.10;99.90
1578;DHT22;57623;53.608;10.004;2023-03-23T15:21:19;13.90;99.90
1578;DHT22;57623;53.608;10.004;2023-03-23T15:23:46;13.70;99.90
1578;DHT22;57623;53.608;10.004;2023-03-23T15:26:29;13.60;99.90
1578;DHT22;57623;53.608;10.004;2023-03-23T15:29:04;13.40;99.90
1578;DHT22;57623;53.608;10.004;2023-03-23T15:31:33;13.30;99.90
1578;DHT22;57623;53.608;10.004;2023-03-23T15:34:03;13.20;99.90
1578;DHT22;57623;53.608;10.004;2023-03-23T15:36:34;13.20;99.90
1578;DHT22;57623;53.608;10.004;2023-03-23T15:39:02;13.10;99.90
1578;DHT22;57623;53.608;10.004;2023-03-23T15:41:32;13.10;99.90
1578;DHT22;57623;53.608;10.004;2023-03-23T15:44:10;13.10;99.90
1578;DHT22;57623;53.608;10.004;2023-03-23T15:46:49;13.00;99.90
1578;DHT22;57623;53.608;10.004;2023-03-23T15:49:16;13.00;99.90
1578;DHT22;57623;53.608;10.004;2023-03-23T15:51:45;13.00;99.90
1578;DHT22;57623;53.608;10.004;2023-03-23T15:54:15;12.90;99.90
1578;DHT22;57623;53.608;10.004;2023-03-23T15:56:43;12.80;99.90
1578;DHT22;57623;53.608;10.004;2023-03-23T15:59:10;12.70;99.90
1578;DHT22;57623;53.608;10.004;2023-03-23T16:01:40;12.70;99.90